createdAt,value
2022-12-15T00:00:12.382Z,99219.25
2022-12-15T00:03:25.944Z,99221.71
2022-12-15T00:06:12.476Z,99226.55
2022-12-15T00:08:58.894Z,99222.04
2022-12-15T00:11:45.054Z,99227.91
2022-12-15T00:14:31.647Z,99218.92
2022-12-15T00:17:17.732Z,99222.04
2022-12-15T00:20:04.170Z,99221.02
2022-12-15T00:22:50.599Z,99218.09
2022-12-15T00:25:37.213Z,99212.33
2022-12-15T00:28:23.841Z,99208.52
2022-12-15T00:31:10.328Z,99206.34
2022-12-15T00:33:56.717Z,99208.81
2022-12-15T00:36:42.994Z,99208.61
2022-12-15T00:39:10.667Z,99204.34
2022-12-15T00:41:38.327Z,99204.27
2022-12-15T00:44:05.935Z,99206.64
2022-12-15T00:46:52.258Z,99205.75
2022-12-15T00:49:46.127Z,99205.13
2022-12-15T00:52:33.971Z,99205.98
2022-12-15T00:55:20.902Z,99201.83
2022-12-15T00:58:07.058Z,99200.80
2022-12-15T01:00:53.413Z,99199.58
2022-12-15T01:03:42.450Z,99195.75
2022-12-15T01:06:32.371Z,99184.34
2022-12-15T01:09:20.020Z,99188.14
2022-12-15T01:12:06.262Z,99184.14
2022-12-15T01:14:52.944Z,99185.97
2022-12-15T01:17:40.015Z,99188.88
2022-12-15T01:20:21.095Z,99193.13
2022-12-15T01:22:52.887Z,99192.67
2022-12-15T01:25:23.673Z,99197.40
2022-12-15T01:27:52.309Z,99196.48
2022-12-15T01:30:23.037Z,99196.84
2022-12-15T01:32:51.322Z,99196.52
2022-12-15T01:35:20.308Z,99195.60
2022-12-15T01:37:50.044Z,99200.89
2022-12-15T01:40:38.409Z,99200.38
2022-12-15T01:43:18.761Z,99203.48
2022-12-15T01:46:01.021Z,99201.97
2022-12-15T01:48:34.482Z,99196.98
2022-12-15T01:51:11.463Z,99197.84
2022-12-15T01:54:05.068Z,99196.52
2022-12-15T01:56:38.316Z,99198.16
2022-12-15T01:59:10.574Z,99192.52
2022-12-15T02:01:38.434Z,99186.42
2022-12-15T02:04:07.933Z,99186.14
2022-12-15T02:06:36.531Z,99189.16
2022-12-15T02:09:05.074Z,99190.04
2022-12-15T02:11:35.487Z,99192.61
2022-12-15T02:14:06.462Z,99192.33
2022-12-15T02:16:57.162Z,99199.21
2022-12-15T02:19:34.276Z,99202.00
2022-12-15T02:22:08.023Z,99203.05
2022-12-15T02:24:58.094Z,99206.63
2022-12-15T02:27:53.207Z,99199.73
2022-12-15T02:30:45.182Z,99197.48
2022-12-15T02:33:27.615Z,99201.45
2022-12-15T02:36:05.475Z,99202.86
2022-12-15T02:38:38.080Z,99206.30
2022-12-15T02:41:06.676Z,99209.98
2022-12-15T02:43:38.794Z,99213.63
2022-12-15T02:46:27.125Z,99219.29
2022-12-15T02:49:15.042Z,99218.73
2022-12-15T02:52:11.917Z,99222.48
2022-12-15T02:55:03.259Z,99224.41
2022-12-15T02:57:55.202Z,99222.17
2022-12-15T03:00:23.101Z,99216.65
2022-12-15T03:02:55.509Z,99215.05
2022-12-15T03:05:24.623Z,99217.11
2022-12-15T03:07:54.581Z,99219.70
2022-12-15T03:10:23.544Z,99221.17
2022-12-15T03:12:51.816Z,99220.73
2022-12-15T03:15:19.529Z,99222.09
2022-12-15T03:17:47.243Z,99223.23
2022-12-15T03:20:15.869Z,99225.52
2022-12-15T03:22:44.701Z,99225.20
2022-12-15T03:25:12.380Z,99226.77
2022-12-15T03:27:40.050Z,99229.96
2022-12-15T03:30:08.340Z,99231.05
2022-12-15T03:32:36.002Z,99233.73
2022-12-15T03:35:04.096Z,99238.19
2022-12-15T03:37:31.743Z,99240.87
2022-12-15T03:39:59.484Z,99240.96
2022-12-15T03:42:45.596Z,99239.58
2022-12-15T03:45:13.260Z,99239.99
2022-12-15T03:47:42.142Z,99243.11
2022-12-15T03:50:11.068Z,99242.11
2022-12-15T03:52:38.730Z,99241.17
2022-12-15T03:55:07.599Z,99247.88
2022-12-15T03:57:35.293Z,99249.45
2022-12-15T04:00:04.778Z,99245.73
2022-12-15T04:02:41.210Z,99249.97
2022-12-15T04:05:33.458Z,99249.40
2022-12-15T04:08:01.895Z,99253.13
2022-12-15T04:10:34.647Z,99248.71
2022-12-15T04:13:05.770Z,99259.23
2022-12-15T04:15:34.752Z,99264.96
2022-12-15T04:18:03.732Z,99269.30
2022-12-15T04:20:33.081Z,99268.39
2022-12-15T04:23:01.103Z,99267.34
2022-12-15T04:25:47.840Z,99271.66
2022-12-15T04:28:34.084Z,99265.27
2022-12-15T04:31:34.079Z,99265.89
2022-12-15T04:34:23.760Z,99266.68
2022-12-15T04:37:12.058Z,99268.36
2022-12-15T04:40:01.282Z,99277.95
2022-12-15T04:42:50.117Z,99286.52
2022-12-15T04:45:40.287Z,99287.25
2022-12-15T04:48:26.645Z,99297.81
2022-12-15T04:51:13.118Z,99299.77
2022-12-15T04:54:01.892Z,99307.05
2022-12-15T04:56:49.872Z,99308.23
2022-12-15T04:59:37.142Z,99307.50
2022-12-15T05:02:23.700Z,99309.48
2022-12-15T05:05:10.264Z,99312.11
2022-12-15T05:07:56.452Z,99323.43
2022-12-15T05:10:42.729Z,99329.08
2022-12-15T05:13:29.368Z,99335.29
2022-12-15T05:16:15.980Z,99341.73
2022-12-15T05:19:02.152Z,99338.58
2022-12-15T05:21:48.225Z,99337.59
2022-12-15T05:24:34.679Z,99339.49
2022-12-15T05:27:21.121Z,99346.36
2022-12-15T05:30:07.665Z,99357.27
2022-12-15T05:32:35.294Z,99355.62
2022-12-15T05:35:02.951Z,99357.11
2022-12-15T05:37:30.625Z,99365.23
2022-12-15T05:39:58.323Z,99366.97
2022-12-15T05:42:25.935Z,99375.73
2022-12-15T05:44:53.559Z,99382.70
2022-12-15T05:47:21.224Z,99388.84
2022-12-15T05:49:49.257Z,99396.89
2022-12-15T05:52:17.092Z,99398.63
2022-12-15T05:54:44.747Z,99408.84
2022-12-15T05:57:12.435Z,99412.11
2022-12-15T05:59:40.095Z,99409.73
2022-12-15T06:02:07.726Z,99411.43
2022-12-15T06:04:35.996Z,99412.59
2022-12-15T06:07:03.724Z,99418.52
2022-12-15T06:09:31.423Z,99423.84
2022-12-15T06:11:59.199Z,99430.90
2022-12-15T06:14:26.785Z,99435.58
2022-12-15T06:16:54.506Z,99440.70
2022-12-15T06:19:22.166Z,99447.16
2022-12-15T06:21:49.900Z,99450.42
2022-12-15T06:24:17.853Z,99450.64
2022-12-15T06:26:46.001Z,99454.13
2022-12-15T06:29:18.570Z,99459.98
2022-12-15T06:31:46.801Z,99464.06
2022-12-15T06:34:16.725Z,99472.00
2022-12-15T06:36:44.462Z,99478.14
2022-12-15T06:39:16.481Z,99487.95
2022-12-15T06:41:44.558Z,99499.70
2022-12-15T06:44:15.011Z,99500.80
2022-12-15T06:46:43.316Z,99503.02
2022-12-15T06:49:10.948Z,99508.39
2022-12-15T06:51:38.702Z,99512.83
2022-12-15T06:54:06.318Z,99517.16
2022-12-15T06:56:36.204Z,99524.40
2022-12-15T06:59:05.457Z,99526.88
2022-12-15T07:01:33.451Z,99528.13
2022-12-15T07:04:02.847Z,99527.30
2022-12-15T07:06:38.332Z,99523.92
2022-12-15T07:09:13.800Z,99528.80
2022-12-15T07:11:41.537Z,99533.68
2022-12-15T07:14:10.101Z,99540.29
2022-12-15T07:16:38.005Z,99542.83
2022-12-15T07:19:05.857Z,99549.87
2022-12-15T07:21:33.476Z,99553.64
2022-12-15T07:24:02.189Z,99564.08
2022-12-15T07:26:30.536Z,99571.66
2022-12-15T07:28:58.298Z,99578.45
2022-12-15T07:31:25.993Z,99583.90
2022-12-15T07:33:54.711Z,99587.45
2022-12-15T07:36:22.730Z,99592.65
2022-12-15T07:38:51.553Z,99596.67
2022-12-15T07:41:20.320Z,99597.13
2022-12-15T07:43:48.543Z,99600.42
2022-12-15T07:46:16.908Z,99607.20
2022-12-15T07:48:50.419Z,99610.50
2022-12-15T07:51:20.360Z,99612.15
2022-12-15T07:53:50.206Z,99615.72
2022-12-15T07:56:19.722Z,99616.05
2022-12-15T07:58:47.916Z,99617.25
2022-12-15T08:01:16.044Z,99620.84
2022-12-15T08:03:44.905Z,99630.33
2022-12-15T08:06:14.491Z,99631.55
2022-12-15T08:08:45.004Z,99634.84
2022-12-15T08:11:21.203Z,99635.17
2022-12-15T08:14:02.542Z,99635.20
2022-12-15T08:16:33.285Z,99640.05
2022-12-15T08:19:01.218Z,99643.64
2022-12-15T08:21:31.203Z,99639.64
2022-12-15T08:24:00.871Z,99639.02
2022-12-15T08:26:31.029Z,99643.08
2022-12-15T08:31:54.078Z,99657.64
2022-12-15T08:34:22.176Z,99661.32
2022-12-15T08:36:50.630Z,99669.42
2022-12-15T08:39:18.367Z,99676.71
2022-12-15T08:41:46.241Z,99680.10
2022-12-15T08:44:13.964Z,99682.43
2022-12-15T08:46:41.706Z,99684.36
2022-12-15T08:49:10.213Z,99690.77
2022-12-15T08:51:37.932Z,99692.80
2022-12-15T08:54:05.636Z,99701.08
2022-12-15T08:56:33.312Z,99700.13
2022-12-15T08:59:02.220Z,99700.45
2022-12-15T09:01:32.406Z,99705.71
2022-12-15T09:04:01.326Z,99707.10
2022-12-15T09:06:32.012Z,99707.05
2022-12-15T09:09:03.156Z,99710.80
2022-12-15T09:11:31.393Z,99711.44
2022-12-15T09:13:59.136Z,99708.29
2022-12-15T09:16:27.883Z,99712.45
2022-12-15T09:18:58.037Z,99717.72
2022-12-15T09:21:26.885Z,99724.36
2022-12-15T09:24:00.531Z,99728.33
2022-12-15T09:26:31.190Z,99732.37
2022-12-15T09:28:59.237Z,99737.59
2022-12-15T09:31:29.865Z,99738.05
2022-12-15T09:33:59.738Z,99742.73
2022-12-15T09:36:28.515Z,99742.04
2022-12-15T09:38:56.323Z,99740.96
2022-12-15T09:41:27.183Z,99742.91
2022-12-15T09:43:58.988Z,99744.16
2022-12-15T09:46:50.357Z,99746.58
2022-12-15T09:49:38.073Z,99753.20
2022-12-15T09:52:29.154Z,99756.26
2022-12-15T09:55:01.753Z,99755.61
2022-12-15T09:57:53.068Z,99754.83
2022-12-15T10:00:33.109Z,99758.91
2022-12-15T10:03:01.044Z,99761.66
2022-12-15T10:06:14.541Z,99763.99
2022-12-15T10:08:43.845Z,99762.73
2022-12-15T10:11:20.361Z,99763.19
2022-12-15T10:14:26.007Z,99758.52
2022-12-15T10:17:12.092Z,99764.02
2022-12-15T10:19:52.020Z,99771.13
2022-12-15T10:22:24.940Z,99775.16
2022-12-15T10:25:11.127Z,99778.04
2022-12-15T10:28:17.859Z,99782.08
2022-12-15T10:31:02.234Z,99791.83
2022-12-15T10:33:39.522Z,99794.63
2022-12-15T10:36:14.916Z,99788.86
2022-12-15T10:38:47.352Z,99789.42
2022-12-15T10:41:23.333Z,99800.12
2022-12-15T10:43:52.526Z,99800.14
2022-12-15T10:46:22.797Z,99800.67
2022-12-15T10:49:07.084Z,99807.45
2022-12-15T10:51:51.251Z,99811.27
2022-12-15T10:54:19.022Z,99808.53
2022-12-15T10:56:58.157Z,99812.29
2022-12-15T10:59:31.706Z,99812.11
2022-12-15T11:02:26.149Z,99815.75
2022-12-15T11:05:05.312Z,99818.27
2022-12-15T11:07:42.711Z,99820.61
2022-12-15T11:10:50.566Z,99822.55
2022-12-15T11:13:22.480Z,99815.79
2022-12-15T11:15:53.066Z,99820.42
2022-12-15T11:18:41.971Z,99824.42
2022-12-15T11:21:18.595Z,99826.30
2022-12-15T11:23:52.370Z,99832.50
2022-12-15T11:26:58.675Z,99833.20
2022-12-15T11:29:34.472Z,99843.95
2022-12-15T11:32:06.910Z,99848.65
2022-12-15T11:34:44.244Z,99853.81
2022-12-15T11:37:36.504Z,99856.30
2022-12-15T11:40:40.106Z,99861.64
2022-12-15T11:43:45.671Z,99865.86
2022-12-15T11:46:24.331Z,99869.27
2022-12-15T11:48:58.090Z,99870.98
2022-12-15T11:51:49.964Z,99870.13
2022-12-15T11:54:42.630Z,99869.41
2022-12-15T11:57:22.276Z,99870.74
2022-12-15T12:00:28.339Z,99875.94
2022-12-15T12:03:16.265Z,99881.86
2022-12-15T12:06:29.343Z,99887.09
2022-12-15T12:09:07.350Z,99896.86
2022-12-15T12:11:43.806Z,99899.30
2022-12-15T12:14:30.216Z,99901.83
2022-12-15T12:17:11.496Z,99906.41
2022-12-15T12:19:58.003Z,99906.80
2022-12-15T12:22:40.780Z,99912.88
2022-12-15T12:25:20.759Z,99913.23
2022-12-15T12:27:52.965Z,99916.96
2022-12-15T12:30:25.066Z,99921.78
2022-12-15T12:33:02.031Z,99920.36
2022-12-15T12:35:55.261Z,99927.09
2022-12-15T12:38:31.306Z,99925.06
2022-12-15T12:41:18.909Z,99927.55
2022-12-15T12:43:58.880Z,99927.06
2022-12-15T12:46:48.777Z,99932.28
2022-12-15T12:49:26.897Z,99938.20
2022-12-15T12:51:58.662Z,99939.41
2022-12-15T12:54:35.312Z,99944.13
2022-12-15T12:57:31.875Z,99944.80
2022-12-15T13:00:13.026Z,99954.51
2022-12-15T13:02:50.504Z,99962.20
2022-12-15T13:05:37.215Z,99965.50
2022-12-15T13:08:10.852Z,99969.58
2022-12-15T13:10:41.284Z,99974.48
2022-12-15T13:13:27.745Z,99974.67
2022-12-15T13:16:27.623Z,99969.21
2022-12-15T13:19:09.007Z,99971.86
2022-12-15T13:21:45.150Z,99979.32
2022-12-15T13:24:26.074Z,99990.15
2022-12-15T13:27:04.221Z,99996.63
2022-12-15T13:29:35.018Z,99999.35
2022-12-15T13:32:03.914Z,99997.92
2022-12-15T13:34:38.991Z,100003.66
2022-12-15T13:37:45.631Z,100006.58
2022-12-15T13:40:22.701Z,100012.22
2022-12-15T13:43:05.885Z,100010.63
2022-12-15T13:45:44.222Z,100014.52
2022-12-15T13:48:44.409Z,100018.75
2022-12-15T13:51:14.919Z,100024.48
2022-12-15T13:53:51.629Z,100027.90
2022-12-15T13:56:23.402Z,100029.46
2022-12-15T13:59:00.721Z,100026.33
2022-12-15T14:01:32.980Z,100027.30
2022-12-15T14:04:17.921Z,100030.35
2022-12-15T14:06:53.676Z,100026.94
2022-12-15T14:09:29.484Z,100032.80
2022-12-15T14:11:57.917Z,100034.48
2022-12-15T14:14:29.732Z,100027.71
2022-12-15T14:17:18.014Z,100025.05
2022-12-15T14:19:50.889Z,100027.14
2022-12-15T14:22:28.512Z,100027.44
2022-12-15T14:25:14.130Z,100028.75
2022-12-15T14:27:42.040Z,100029.61
2022-12-15T14:30:26.803Z,100027.85
2022-12-15T14:32:59.610Z,100029.65
2022-12-15T14:35:32.109Z,100028.61
2022-12-15T14:38:02.762Z,100031.67
2022-12-15T14:40:31.232Z,100031.85
2022-12-15T14:42:59.444Z,100040.67
2022-12-15T14:45:31.212Z,100045.04
2022-12-15T14:51:02.601Z,100045.05
2022-12-15T14:53:38.033Z,100049.35
2022-12-15T14:56:27.612Z,100053.73
2022-12-15T14:59:18.101Z,100051.14
2022-12-15T15:01:59.612Z,100054.55
2022-12-15T15:04:32.442Z,100057.75
2022-12-15T15:07:06.231Z,100059.55
2022-12-15T15:09:40.660Z,100062.98
2022-12-15T15:12:18.194Z,100062.21
2022-12-15T15:14:58.012Z,100074.64
2022-12-15T15:17:31.001Z,100079.35
2022-12-15T15:20:17.455Z,100084.61
2022-12-15T15:22:46.710Z,100077.79
2022-12-15T15:25:28.316Z,100075.94
2022-12-15T15:28:17.939Z,100082.56
2022-12-15T15:30:56.556Z,100087.81
2022-12-15T15:33:25.177Z,100085.98
2022-12-15T15:35:56.119Z,100083.97
2022-12-15T15:38:26.917Z,100084.21
2022-12-15T15:41:00.413Z,100092.34
2022-12-15T15:43:28.963Z,100096.58
2022-12-15T15:46:08.251Z,100098.71
2022-12-15T15:48:41.704Z,100101.63
2022-12-15T15:51:09.460Z,100104.57
2022-12-15T15:53:37.734Z,100111.72
2022-12-15T15:56:08.876Z,100112.55
2022-12-15T15:58:36.890Z,100109.92
2022-12-15T16:01:09.518Z,100116.15
2022-12-15T16:03:41.299Z,100122.80
2022-12-15T16:06:19.388Z,100132.70
2022-12-15T16:08:50.121Z,100136.52
2022-12-15T16:11:18.028Z,100146.98
2022-12-15T16:13:45.929Z,100151.02
2022-12-15T16:16:19.740Z,100152.84
2022-12-15T16:18:47.657Z,100158.85
2022-12-15T16:21:16.772Z,100166.65
2022-12-15T16:23:47.702Z,100175.50
2022-12-15T16:26:19.599Z,100171.88
2022-12-15T16:28:48.899Z,100176.79
2022-12-15T16:31:37.289Z,100174.76
2022-12-15T16:34:08.626Z,100182.55
2022-12-15T16:36:36.525Z,100189.52
2022-12-15T16:39:04.690Z,100198.60
2022-12-15T16:41:32.853Z,100197.88
2022-12-15T16:44:00.487Z,100202.25
2022-12-15T16:46:28.218Z,100202.20
2022-12-15T16:48:55.992Z,100199.86
2022-12-15T16:51:23.628Z,100194.14
2022-12-15T16:53:51.263Z,100195.11
2022-12-15T16:56:19.256Z,100200.64
2022-12-15T16:58:48.895Z,100199.89
2022-12-15T17:01:22.143Z,100210.60
2022-12-15T17:03:50.051Z,100212.65
2022-12-15T17:06:17.853Z,100214.02
2022-12-15T17:08:54.136Z,100216.81
2022-12-15T17:11:24.565Z,100214.17
2022-12-15T17:13:55.710Z,100218.27
2022-12-15T17:16:25.783Z,100217.41
2022-12-15T17:18:54.341Z,100217.94
2022-12-15T17:21:53.230Z,100217.62
2022-12-15T17:24:22.349Z,100211.52
2022-12-15T17:26:50.649Z,100210.66
2022-12-15T17:29:23.451Z,100209.92
2022-12-15T17:31:51.335Z,100216.25
2022-12-15T17:34:27.209Z,100216.19
2022-12-15T17:36:56.672Z,100201.39
2022-12-15T17:39:25.788Z,100194.50
2022-12-15T17:42:02.724Z,100195.47
2022-12-15T17:44:36.925Z,100199.06
2022-12-15T17:47:07.836Z,100203.70
2022-12-15T17:49:38.012Z,100208.89
2022-12-15T17:52:09.182Z,100206.64
2022-12-15T17:54:36.927Z,100203.58
2022-12-15T17:57:04.642Z,100199.77
2022-12-15T17:59:32.317Z,100198.52
2022-12-15T18:02:00.092Z,100199.02
2022-12-15T18:04:27.969Z,100200.80
2022-12-15T18:07:01.456Z,100199.98
2022-12-15T18:09:30.052Z,100206.51
2022-12-15T18:11:58.113Z,100207.08
2022-12-15T18:14:27.421Z,100207.44
2022-12-15T18:16:55.372Z,100206.58
2022-12-15T18:19:23.424Z,100212.33
2022-12-15T18:21:51.108Z,100214.23
2022-12-15T18:24:21.636Z,100216.20
2022-12-15T18:26:49.303Z,100221.30
2022-12-15T18:29:18.226Z,100227.48
2022-12-15T18:31:48.357Z,100228.69
2022-12-15T18:34:18.893Z,100238.21
2022-12-15T18:36:46.714Z,100238.92
2022-12-15T18:39:23.249Z,100243.84
2022-12-15T18:41:52.529Z,100243.36
2022-12-15T18:44:26.074Z,100243.73
2022-12-15T18:46:55.098Z,100238.70
2022-12-15T18:49:23.796Z,100245.68
2022-12-15T18:51:51.724Z,100247.98
2022-12-15T18:54:22.212Z,100256.73
2022-12-15T18:56:50.532Z,100249.45
2022-12-15T18:59:19.455Z,100249.36
2022-12-15T19:01:48.730Z,100262.58
2022-12-15T19:04:16.783Z,100262.62
2022-12-15T19:06:45.030Z,100263.40
2022-12-15T19:09:21.756Z,100256.85
2022-12-15T19:12:09.008Z,100266.06
2022-12-15T19:14:42.995Z,100261.83
2022-12-15T19:17:31.531Z,100255.83
2022-12-15T19:20:17.894Z,100259.79
2022-12-15T19:22:47.788Z,100255.70
2022-12-15T19:25:25.372Z,100258.98
2022-12-15T19:28:01.029Z,100257.89
2022-12-15T19:30:36.921Z,100257.73
2022-12-15T19:33:08.081Z,100266.75
2022-12-15T19:35:37.189Z,100268.91
2022-12-15T19:38:06.599Z,100266.42
2022-12-15T19:40:37.531Z,100261.48
2022-12-15T19:43:05.483Z,100261.65
2022-12-15T19:45:33.716Z,100258.79
2022-12-15T19:48:01.480Z,100257.25
2022-12-15T19:50:33.327Z,100248.54
2022-12-15T19:53:03.532Z,100244.56
2022-12-15T19:55:34.156Z,100245.66
2022-12-15T19:58:27.512Z,100248.41
2022-12-15T20:00:58.449Z,100248.30
2022-12-15T20:03:27.404Z,100247.96
2022-12-15T20:05:57.324Z,100245.82
2022-12-15T20:08:28.168Z,100243.98
2022-12-15T20:10:56.502Z,100244.73
2022-12-15T20:13:26.414Z,100244.13
2022-12-15T20:15:55.013Z,100250.67
2022-12-15T20:18:22.793Z,100251.05
2022-12-15T20:20:50.840Z,100260.34
2022-12-15T20:23:27.750Z,100268.77
2022-12-15T20:25:56.184Z,100261.67
2022-12-15T20:28:27.269Z,100263.51
2022-12-15T20:30:56.678Z,100270.29
2022-12-15T20:33:24.573Z,100270.16
2022-12-15T20:35:52.834Z,100274.67
2022-12-15T20:38:28.806Z,100277.98
2022-12-15T20:40:57.550Z,100278.59
2022-12-15T20:43:26.550Z,100271.99
2022-12-15T20:46:05.234Z,100271.01
2022-12-15T20:48:36.618Z,100275.90
2022-12-15T20:51:09.463Z,100277.49
2022-12-15T20:53:39.080Z,100277.27
2022-12-15T20:56:07.309Z,100276.60
2022-12-15T20:58:41.224Z,100278.92
2022-12-15T21:01:24.581Z,100281.02
2022-12-15T21:03:55.873Z,100279.81
2022-12-15T21:06:25.099Z,100285.55
2022-12-15T21:08:53.209Z,100289.34
2022-12-15T21:11:26.157Z,100284.76
2022-12-15T21:13:56.772Z,100285.89
2022-12-15T21:16:28.198Z,100284.71
2022-12-15T21:19:20.221Z,100282.57
2022-12-15T21:21:46.524Z,100283.90
2022-12-15T21:24:22.707Z,100281.08
2022-12-15T21:26:51.444Z,100279.84
2022-12-15T21:29:24.784Z,100278.41
2022-12-15T21:31:52.817Z,100277.94
2022-12-15T21:34:20.515Z,100280.36
2022-12-15T21:36:52.514Z,100273.23
2022-12-15T21:39:30.006Z,100275.41
2022-12-15T21:41:59.993Z,100282.89
2022-12-15T21:44:27.664Z,100288.16
2022-12-15T21:46:55.275Z,100291.66
2022-12-15T21:49:23.410Z,100286.06
2022-12-15T21:51:55.124Z,100279.36
2022-12-15T21:57:17.892Z,100279.11
2022-12-15T21:59:45.498Z,100279.61
2022-12-15T22:02:25.990Z,100280.48
2022-12-15T22:04:54.832Z,100278.23
2022-12-15T22:07:22.854Z,100273.59
2022-12-15T22:09:51.750Z,100276.80
2022-12-15T22:12:22.458Z,100280.45
2022-12-15T22:14:50.216Z,100278.73
2022-12-15T22:17:21.706Z,100283.71
2022-12-15T22:19:49.346Z,100293.88
2022-12-15T22:22:17.234Z,100306.52
2022-12-15T22:24:44.948Z,100307.65
2022-12-15T22:27:21.527Z,100311.50
2022-12-15T22:29:50.184Z,100305.28
2022-12-15T22:32:17.814Z,100302.19
2022-12-15T22:34:45.485Z,100303.47
2022-12-15T22:37:13.115Z,100307.97
2022-12-15T22:39:40.718Z,100310.35
2022-12-15T22:42:14.900Z,100314.70
2022-12-15T22:44:42.583Z,100313.12
2022-12-15T22:47:10.609Z,100315.29
2022-12-15T22:49:40.565Z,100314.52
2022-12-15T22:52:21.027Z,100309.78
2022-12-15T22:54:48.717Z,100313.20
2022-12-15T22:57:22.980Z,100312.16
2022-12-15T23:00:00.375Z,100311.74
2022-12-15T23:02:33.057Z,100310.64
2022-12-15T23:05:01.929Z,100310.80
2022-12-15T23:07:29.629Z,100309.26
2022-12-15T23:10:17.569Z,100304.93
2022-12-15T23:12:45.246Z,100304.38
2022-12-15T23:15:31.594Z,100311.30
2022-12-15T23:17:59.883Z,100311.55
2022-12-15T23:20:27.567Z,100311.61
2022-12-15T23:22:55.211Z,100305.08
2022-12-15T23:25:22.863Z,100296.70
2022-12-15T23:27:50.538Z,100297.87
2022-12-15T23:30:18.463Z,100307.30
2022-12-15T23:32:46.458Z,100311.61
2022-12-15T23:35:14.635Z,100315.13
2022-12-15T23:37:42.499Z,100312.85
2022-12-15T23:40:10.997Z,100309.86
2022-12-15T23:42:38.609Z,100312.15
2022-12-15T23:45:07.106Z,100313.35
2022-12-15T23:47:34.788Z,100309.89
2022-12-15T23:50:02.479Z,100303.62
2022-12-15T23:52:30.436Z,100300.11
2022-12-15T23:54:57.995Z,100304.14
2022-12-15T23:57:25.593Z,100308.96
2022-12-15T23:59:53.173Z,100309.11
